sensor_id;sensor_type;location;lat;lon;timestamp;temperature;humidity
78516;SHT31;67815;51.990;5.688;2023-04-19T00:02:10;12.8;56.7
78516;SHT31;67815;51.990;5.688;2023-04-19T00:04:40;12.8;56.7
78516;SHT31;67815;51.990;5.688;2023-04-19T00:07:13;12.9;57.2
78516;SHT31;67815;51.990;5.688;2023-04-19T00:09:43;12.9;57.1
78516;SHT31;67815;51.990;5.688;2023-04-19T00:12:13;12.9;57.3
78516;SHT31;67815;51.990;5.688;2023-04-19T00:14:43;12.9;57.3
78516;SHT31;67815;51.990;5.688;2023-04-19T00:17:12;12.9;57.6
78516;SHT31;67815;51.990;5.688;2023-04-19T00:19:42;12.9;57.5
78516;SHT31;67815;51.990;5.688;2023-04-19T00:22:14;12.9;57.5
78516;SHT31;67815;51.990;5.688;2023-04-19T00:24:44;13.0;57.5
78516;SHT31;67815;51.990;5.688;2023-04-19T00:27:13;13.0;57.4
78516;SHT31;67815;51.990;5.688;2023-04-19T00:29:43;13.0;57.7
78516;SHT31;67815;51.990;5.688;2023-04-19T00:32:15;13.0;57.6
78516;SHT31;67815;51.990;5.688;2023-04-19T00:34:45;13.0;57.5
78516;SHT31;67815;51.990;5.688;2023-04-19T00:37:15;13.0;57.6
78516;SHT31;67815;51.990;5.688;2023-04-19T00:39:44;13.0;57.7
78516;SHT31;67815;51.990;5.688;2023-04-19T00:42:16;13.0;57.8
78516;SHT31;67815;51.990;5.688;2023-04-19T00:44:45;13.0;57.8
78516;SHT31;67815;51.990;5.688;2023-04-19T00:47:15;13.0;57.9
78516;SHT31;67815;51.990;5.688;2023-04-19T00:49:45;13.0;57.8
78516;SHT31;67815;51.990;5.688;2023-04-19T00:52:17;13.0;57.7
78516;SHT31;67815;51.990;5.688;2023-04-19T00:54:47;13.0;57.8
78516;SHT31;67815;51.990;5.688;2023-04-19T00:57:17;13.0;57.8
78516;SHT31;67815;51.990;5.688;2023-04-19T00:59:50;13.0;57.8
78516;SHT31;67815;51.990;5.688;2023-04-19T01:02:19;13.0;57.7
78516;SHT31;67815;51.990;5.688;2023-04-19T01:04:49;13.0;57.8
78516;SHT31;67815;51.990;5.688;2023-04-19T01:07:19;13.0;57.6
78516;SHT31;67815;51.990;5.688;2023-04-19T01:09:50;13.0;57.7
78516;SHT31;67815;51.990;5.688;2023-04-19T01:12:19;13.0;57.6
78516;SHT31;67815;51.990;5.688;2023-04-19T01:14:49;12.9;57.6
78516;SHT31;67815;51.990;5.688;2023-04-19T01:17:19;12.9;57.7
78516;SHT31;67815;51.990;5.688;2023-04-19T01:19:49;12.9;58.0
78516;SHT31;67815;51.990;5.688;2023-04-19T01:22:24;12.9;57.8
78516;SHT31;67815;51.990;5.688;2023-04-19T01:24:55;12.9;57.9
78516;SHT31;67815;51.990;5.688;2023-04-19T01:27:27;12.9;57.9
78516;SHT31;67815;51.990;5.688;2023-04-19T01:29:56;12.8;58.1
78516;SHT31;67815;51.990;5.688;2023-04-19T01:32:26;12.8;58.3
78516;SHT31;67815;51.990;5.688;2023-04-19T01:34:56;12.8;58.4
78516;SHT31;67815;51.990;5.688;2023-04-19T01:37:25;12.7;58.3
78516;SHT31;67815;51.990;5.688;2023-04-19T01:39:56;12.7;58.4
78516;SHT31;67815;51.990;5.688;2023-04-19T01:42:26;12.7;58.6
78516;SHT31;67815;51.990;5.688;2023-04-19T01:44:56;12.7;58.8
78516;SHT31;67815;51.990;5.688;2023-04-19T01:47:28;12.6;58.7
78516;SHT31;67815;51.990;5.688;2023-04-19T01:49:57;12.6;58.8
78516;SHT31;67815;51.990;5.688;2023-04-19T01:52:28;12.6;59.0
78516;SHT31;67815;51.990;5.688;2023-04-19T01:54:57;12.6;58.9
78516;SHT31;67815;51.990;5.688;2023-04-19T01:57:27;12.6;58.9
78516;SHT31;67815;51.990;5.688;2023-04-19T01:59:56;12.6;59.0
78516;SHT31;67815;51.990;5.688;2023-04-19T02:02:26;12.6;59.1
78516;SHT31;67815;51.990;5.688;2023-04-19T02:04:56;12.6;59.1
78516;SHT31;67815;51.990;5.688;2023-04-19T02:07:26;12.5;59.2
78516;SHT31;67815;51.990;5.688;2023-04-19T02:09:56;12.5;59.1
78516;SHT31;67815;51.990;5.688;2023-04-19T02:12:27;12.5;59.3
78516;SHT31;67815;51.990;5.688;2023-04-19T02:14:58;12.5;59.3
78516;SHT31;67815;51.990;5.688;2023-04-19T02:17:29;12.5;59.4
78516;SHT31;67815;51.990;5.688;2023-04-19T02:19:58;12.5;59.9
78516;SHT31;67815;51.990;5.688;2023-04-19T02:22:28;12.4;59.8
78516;SHT31;67815;51.990;5.688;2023-04-19T02:25:00;12.4;59.6
78516;SHT31;67815;51.990;5.688;2023-04-19T02:27:30;12.4;59.6
78516;SHT31;67815;51.990;5.688;2023-04-19T02:30:00;12.4;59.6
78516;SHT31;67815;51.990;5.688;2023-04-19T02:32:30;12.4;59.8
78516;SHT31;67815;51.990;5.688;2023-04-19T02:35:00;12.4;59.6
78516;SHT31;67815;51.990;5.688;2023-04-19T02:37:30;12.4;59.6
78516;SHT31;67815;51.990;5.688;2023-04-19T02:39:59;12.4;59.7
78516;SHT31;67815;51.990;5.688;2023-04-19T02:42:30;12.4;59.6
78516;SHT31;67815;51.990;5.688;2023-04-19T02:44:59;12.4;59.7
78516;SHT31;67815;51.990;5.688;2023-04-19T02:47:29;12.4;59.8
78516;SHT31;67815;51.990;5.688;2023-04-19T02:49:58;12.4;59.8
78516;SHT31;67815;51.990;5.688;2023-04-19T02:52:31;12.3;60.3
78516;SHT31;67815;51.990;5.688;2023-04-19T02:55:00;12.3;60.2
78516;SHT31;67815;51.990;5.688;2023-04-19T02:57:31;12.3;60.1
78516;SHT31;67815;51.990;5.688;2023-04-19T03:00:01;12.3;60.2
78516;SHT31;67815;51.990;5.688;2023-04-19T03:02:32;12.3;60.1
78516;SHT31;67815;51.990;5.688;2023-04-19T03:05:02;12.3;60.7
78516;SHT31;67815;51.990;5.688;2023-04-19T03:07:32;12.3;60.5
78516;SHT31;67815;51.990;5.688;2023-04-19T03:10:03;12.3;60.4
78516;SHT31;67815;51.990;5.688;2023-04-19T03:12:33;12.3;60.3
78516;SHT31;67815;51.990;5.688;2023-04-19T03:15:03;12.3;60.7
78516;SHT31;67815;51.990;5.688;2023-04-19T03:17:33;12.3;60.6
78516;SHT31;67815;51.990;5.688;2023-04-19T03:20:04;12.3;60.6
78516;SHT31;67815;51.990;5.688;2023-04-19T03:22:37;12.3;60.3
78516;SHT31;67815;51.990;5.688;2023-04-19T03:25:08;12.3;60.2
78516;SHT31;67815;51.990;5.688;2023-04-19T03:27:40;12.3;60.5
78516;SHT31;67815;51.990;5.688;2023-04-19T03:30:12;12.3;60.2
78516;SHT31;67815;51.990;5.688;2023-04-19T03:32:42;12.3;60.1
78516;SHT31;67815;51.990;5.688;2023-04-19T03:35:12;12.3;60.1
78516;SHT31;67815;51.990;5.688;2023-04-19T03:37:42;12.3;60.1
78516;SHT31;67815;51.990;5.688;2023-04-19T03:40:13;12.3;59.7
78516;SHT31;67815;51.990;5.688;2023-04-19T03:42:43;12.3;59.8
78516;SHT31;67815;51.990;5.688;2023-04-19T03:45:13;12.3;59.6
78516;SHT31;67815;51.990;5.688;2023-04-19T03:47:44;12.3;59.7
78516;SHT31;67815;51.990;5.688;2023-04-19T03:50:14;12.3;59.9
78516;SHT31;67815;51.990;5.688;2023-04-19T03:52:43;12.3;59.9
78516;SHT31;67815;51.990;5.688;2023-04-19T03:55:13;12.3;59.7
78516;SHT31;67815;51.990;5.688;2023-04-19T03:57:42;12.3;59.7
78516;SHT31;67815;51.990;5.688;2023-04-19T04:00:13;12.2;59.6
78516;SHT31;67815;51.990;5.688;2023-04-19T04:02:46;12.2;59.7
78516;SHT31;67815;51.990;5.688;2023-04-19T04:05:18;12.2;59.8
78516;SHT31;67815;51.990;5.688;2023-04-19T04:07:47;12.2;59.6
78516;SHT31;67815;51.990;5.688;2023-04-19T04:10:19;12.2;59.4
78516;SHT31;67815;51.990;5.688;2023-04-19T04:12:48;12.2;59.2
78516;SHT31;67815;51.990;5.688;2023-04-19T04:15:18;12.2;59.4
78516;SHT31;67815;51.990;5.688;2023-04-19T04:17:49;12.2;59.4
78516;SHT31;67815;51.990;5.688;2023-04-19T04:20:20;12.2;59.5
78516;SHT31;67815;51.990;5.688;2023-04-19T04:22:49;12.1;59.1
78516;SHT31;67815;51.990;5.688;2023-04-19T04:25:19;12.1;59.1
78516;SHT31;67815;51.990;5.688;2023-04-19T04:27:50;12.1;59.0
78516;SHT31;67815;51.990;5.688;2023-04-19T04:30:21;12.1;59.0
78516;SHT31;67815;51.990;5.688;2023-04-19T04:32:52;12.1;58.8
78516;SHT31;67815;51.990;5.688;2023-04-19T04:35:24;12.0;58.9
78516;SHT31;67815;51.990;5.688;2023-04-19T04:37:56;12.0;58.8
78516;SHT31;67815;51.990;5.688;2023-04-19T04:40:26;12.0;59.1
78516;SHT31;67815;51.990;5.688;2023-04-19T04:42:55;11.9;59.2
78516;SHT31;67815;51.990;5.688;2023-04-19T04:45:27;11.9;59.0
78516;SHT31;67815;51.990;5.688;2023-04-19T04:47:58;11.9;58.8
78516;SHT31;67815;51.990;5.688;2023-04-19T04:50:28;11.8;58.8
78516;SHT31;67815;51.990;5.688;2023-04-19T04:52:57;11.8;58.9
78516;SHT31;67815;51.990;5.688;2023-04-19T04:55:27;11.7;58.9
78516;SHT31;67815;51.990;5.688;2023-04-19T04:57:57;11.7;58.8
78516;SHT31;67815;51.990;5.688;2023-04-19T05:00:27;11.7;59.0
78516;SHT31;67815;51.990;5.688;2023-04-19T05:02:58;11.6;58.7
78516;SHT31;67815;51.990;5.688;2023-04-19T05:05:30;11.6;58.6
78516;SHT31;67815;51.990;5.688;2023-04-19T05:08:00;11.6;58.4
78516;SHT31;67815;51.990;5.688;2023-04-19T05:10:29;11.6;58.1
78516;SHT31;67815;51.990;5.688;2023-04-19T05:12:59;11.6;58.3
78516;SHT31;67815;51.990;5.688;2023-04-19T05:15:29;11.5;58.2
78516;SHT31;67815;51.990;5.688;2023-04-19T05:17:59;11.5;58.1
78516;SHT31;67815;51.990;5.688;2023-04-19T05:20:29;11.5;57.9
78516;SHT31;67815;51.990;5.688;2023-04-19T05:23:00;11.5;58.2
78516;SHT31;67815;51.990;5.688;2023-04-19T05:25:30;11.4;58.1
78516;SHT31;67815;51.990;5.688;2023-04-19T05:27:59;11.4;58.0
78516;SHT31;67815;51.990;5.688;2023-04-19T05:30:30;11.4;57.8
78516;SHT31;67815;51.990;5.688;2023-04-19T05:32:59;11.4;58.5
78516;SHT31;67815;51.990;5.688;2023-04-19T05:35:28;11.4;57.8
78516;SHT31;67815;51.990;5.688;2023-04-19T05:37:58;11.4;57.8
78516;SHT31;67815;51.990;5.688;2023-04-19T05:40:31;11.4;57.5
78516;SHT31;67815;51.990;5.688;2023-04-19T05:43:02;11.3;57.6
78516;SHT31;67815;51.990;5.688;2023-04-19T05:45:31;11.3;56.7
78516;SHT31;67815;51.990;5.688;2023-04-19T05:48:01;11.3;56.5
78516;SHT31;67815;51.990;5.688;2023-04-19T05:50:33;11.3;56.3
78516;SHT31;67815;51.990;5.688;2023-04-19T05:53:03;11.3;56.6
78516;SHT31;67815;51.990;5.688;2023-04-19T05:55:32;11.3;55.7
78516;SHT31;67815;51.990;5.688;2023-04-19T05:58:02;11.3;56.5
78516;SHT31;67815;51.990;5.688;2023-04-19T06:00:31;11.3;55.6
78516;SHT31;67815;51.990;5.688;2023-04-19T06:03:01;11.3;55.0
78516;SHT31;67815;51.990;5.688;2023-04-19T06:05:30;11.3;54.0
78516;SHT31;67815;51.990;5.688;2023-04-19T06:08:00;11.3;54.3
78516;SHT31;67815;51.990;5.688;2023-04-19T06:10:31;11.3;53.8
78516;SHT31;67815;51.990;5.688;2023-04-19T06:13:03;11.3;52.3
78516;SHT31;67815;51.990;5.688;2023-04-19T06:15:33;11.3;52.9
78516;SHT31;67815;51.990;5.688;2023-04-19T06:18:03;11.3;52.3
78516;SHT31;67815;51.990;5.688;2023-04-19T06:20:36;11.3;51.7
78516;SHT31;67815;51.990;5.688;2023-04-19T06:23:06;11.4;51.7
78516;SHT31;67815;51.990;5.688;2023-04-19T06:25:38;11.4;51.3
78516;SHT31;67815;51.990;5.688;2023-04-19T06:28:08;11.4;50.6
78516;SHT31;67815;51.990;5.688;2023-04-19T06:30:38;11.4;50.6
78516;SHT31;67815;51.990;5.688;2023-04-19T06:33:07;11.4;51.2
78516;SHT31;67815;51.990;5.688;2023-04-19T06:35:37;11.4;50.1
78516;SHT31;67815;51.990;5.688;2023-04-19T06:38:07;11.4;49.4
78516;SHT31;67815;51.990;5.688;2023-04-19T06:40:36;11.4;49.1
78516;SHT31;67815;51.990;5.688;2023-04-19T06:43:06;11.5;49.6
78516;SHT31;67815;51.990;5.688;2023-04-19T06:45:35;11.5;49.1
78516;SHT31;67815;51.990;5.688;2023-04-19T06:48:05;11.5;48.9
78516;SHT31;67815;51.990;5.688;2023-04-19T06:50:35;11.6;48.2
78516;SHT31;67815;51.990;5.688;2023-04-19T06:53:04;11.6;47.8
78516;SHT31;67815;51.990;5.688;2023-04-19T06:55:34;11.6;46.0
78516;SHT31;67815;51.990;5.688;2023-04-19T06:58:04;11.6;44.2
78516;SHT31;67815;51.990;5.688;2023-04-19T07:00:37;11.7;43.9
78516;SHT31;67815;51.990;5.688;2023-04-19T07:03:08;11.7;43.7
78516;SHT31;67815;51.990;5.688;2023-04-19T07:05:41;11.7;45.7
78516;SHT31;67815;51.990;5.688;2023-04-19T07:08:13;11.7;45.3
78516;SHT31;67815;51.990;5.688;2023-04-19T07:10:43;11.8;44.1
78516;SHT31;67815;51.990;5.688;2023-04-19T07:13:12;11.8;42.3
78516;SHT31;67815;51.990;5.688;2023-04-19T07:15:42;11.8;42.9
78516;SHT31;67815;51.990;5.688;2023-04-19T07:18:12;11.8;42.4
78516;SHT31;67815;51.990;5.688;2023-04-19T07:20:43;11.8;42.4
78516;SHT31;67815;51.990;5.688;2023-04-19T07:23:15;11.8;43.2
78516;SHT31;67815;51.990;5.688;2023-04-19T07:25:46;11.8;42.8
78516;SHT31;67815;51.990;5.688;2023-04-19T07:28:15;11.9;43.3
78516;SHT31;67815;51.990;5.688;2023-04-19T07:30:45;11.9;43.1
78516;SHT31;67815;51.990;5.688;2023-04-19T07:33:14;11.9;43.1
78516;SHT31;67815;51.990;5.688;2023-04-19T07:35:44;11.9;42.5
78516;SHT31;67815;51.990;5.688;2023-04-19T07:38:14;11.9;42.3
78516;SHT31;67815;51.990;5.688;2023-04-19T07:40:43;12.0;42.3
78516;SHT31;67815;51.990;5.688;2023-04-19T07:43:13;12.0;42.1
78516;SHT31;67815;51.990;5.688;2023-04-19T07:45:43;12.0;42.2
78516;SHT31;67815;51.990;5.688;2023-04-19T07:48:12;12.0;41.5
78516;SHT31;67815;51.990;5.688;2023-04-19T07:50:42;12.0;42.0
78516;SHT31;67815;51.990;5.688;2023-04-19T07:53:12;12.0;41.3
78516;SHT31;67815;51.990;5.688;2023-04-19T07:55:43;12.1;41.8
78516;SHT31;67815;51.990;5.688;2023-04-19T07:58:12;12.1;41.9
78516;SHT31;67815;51.990;5.688;2023-04-19T08:00:42;12.2;41.5
78516;SHT31;67815;51.990;5.688;2023-04-19T08:03:11;12.2;41.6
78516;SHT31;67815;51.990;5.688;2023-04-19T08:05:41;12.2;41.9
78516;SHT31;67815;51.990;5.688;2023-04-19T08:08:10;12.3;41.1
78516;SHT31;67815;51.990;5.688;2023-04-19T08:10:40;12.3;40.6
78516;SHT31;67815;51.990;5.688;2023-04-19T08:13:09;12.4;41.7
78516;SHT31;67815;51.990;5.688;2023-04-19T08:15:39;12.4;42.3
78516;SHT31;67815;51.990;5.688;2023-04-19T08:18:10;12.4;41.3
78516;SHT31;67815;51.990;5.688;2023-04-19T08:20:40;12.4;41.7
78516;SHT31;67815;51.990;5.688;2023-04-19T08:23:13;12.5;40.4
78516;SHT31;67815;51.990;5.688;2023-04-19T08:25:43;12.5;40.4
78516;SHT31;67815;51.990;5.688;2023-04-19T08:28:13;12.6;39.5
78516;SHT31;67815;51.990;5.688;2023-04-19T08:30:43;12.6;38.9
78516;SHT31;67815;51.990;5.688;2023-04-19T08:33:12;12.6;38.8
78516;SHT31;67815;51.990;5.688;2023-04-19T08:35:42;12.6;40.4
78516;SHT31;67815;51.990;5.688;2023-04-19T08:38:12;12.7;39.1
78516;SHT31;67815;51.990;5.688;2023-04-19T08:40:45;12.8;38.5
78516;SHT31;67815;51.990;5.688;2023-04-19T08:43:16;12.9;38.3
78516;SHT31;67815;51.990;5.688;2023-04-19T08:45:48;13.1;38.8
78516;SHT31;67815;51.990;5.688;2023-04-19T08:48:20;13.2;37.9
78516;SHT31;67815;51.990;5.688;2023-04-19T08:50:50;13.2;39.5
78516;SHT31;67815;51.990;5.688;2023-04-19T08:53:20;13.3;36.7
78516;SHT31;67815;51.990;5.688;2023-04-19T08:55:51;13.3;36.5
78516;SHT31;67815;51.990;5.688;2023-04-19T08:58:25;13.4;35.6
78516;SHT31;67815;51.990;5.688;2023-04-19T09:00:57;13.4;36.7
78516;SHT31;67815;51.990;5.688;2023-04-19T09:03:27;13.5;34.6
78516;SHT31;67815;51.990;5.688;2023-04-19T09:05:57;13.5;36.5
78516;SHT31;67815;51.990;5.688;2023-04-19T09:08:30;13.6;34.4
78516;SHT31;67815;51.990;5.688;2023-04-19T09:11:01;13.6;34.1
78516;SHT31;67815;51.990;5.688;2023-04-19T09:13:31;13.6;34.0
78516;SHT31;67815;51.990;5.688;2023-04-19T09:16:04;13.6;33.4
78516;SHT31;67815;51.990;5.688;2023-04-19T09:18:55;13.6;33.8
78516;SHT31;67815;51.990;5.688;2023-04-19T09:21:30;13.6;33.3
78516;SHT31;67815;51.990;5.688;2023-04-19T09:24:01;13.5;33.9
78516;SHT31;67815;51.990;5.688;2023-04-19T09:26:31;13.5;33.9
78516;SHT31;67815;51.990;5.688;2023-04-19T09:29:03;13.5;34.5
78516;SHT31;67815;51.990;5.688;2023-04-19T09:31:35;13.5;35.1
78516;SHT31;67815;51.990;5.688;2023-04-19T09:34:16;13.5;36.7
78516;SHT31;67815;51.990;5.688;2023-04-19T09:36:46;13.5;34.1
78516;SHT31;67815;51.990;5.688;2023-04-19T09:39:29;13.5;34.1
78516;SHT31;67815;51.990;5.688;2023-04-19T09:41:59;13.5;34.9
78516;SHT31;67815;51.990;5.688;2023-04-19T09:44:30;13.5;35.0
78516;SHT31;67815;51.990;5.688;2023-04-19T09:47:01;13.5;35.5
78516;SHT31;67815;51.990;5.688;2023-04-19T09:49:31;13.5;36.1
78516;SHT31;67815;51.990;5.688;2023-04-19T09:52:03;13.5;35.6
78516;SHT31;67815;51.990;5.688;2023-04-19T09:54:34;13.5;35.4
78516;SHT31;67815;51.990;5.688;2023-04-19T09:57:04;13.5;36.0
78516;SHT31;67815;51.990;5.688;2023-04-19T09:59:36;13.5;37.5
78516;SHT31;67815;51.990;5.688;2023-04-19T10:02:06;13.5;36.1
78516;SHT31;67815;51.990;5.688;2023-04-19T10:04:39;13.6;35.7
78516;SHT31;67815;51.990;5.688;2023-04-19T10:07:11;13.6;34.9
78516;SHT31;67815;51.990;5.688;2023-04-19T10:09:41;13.6;35.0
78516;SHT31;67815;51.990;5.688;2023-04-19T10:12:11;13.6;36.2
78516;SHT31;67815;51.990;5.688;2023-04-19T10:14:44;13.6;36.1
78516;SHT31;67815;51.990;5.688;2023-04-19T10:17:16;13.6;35.9
78516;SHT31;67815;51.990;5.688;2023-04-19T10:19:47;13.6;35.9
78516;SHT31;67815;51.990;5.688;2023-04-19T10:22:19;13.7;35.3
78516;SHT31;67815;51.990;5.688;2023-04-19T10:25:11;13.7;35.8
78516;SHT31;67815;51.990;5.688;2023-04-19T10:27:43;13.7;34.3
78516;SHT31;67815;51.990;5.688;2023-04-19T10:30:20;13.8;34.7
78516;SHT31;67815;51.990;5.688;2023-04-19T10:32:54;13.8;35.0
78516;SHT31;67815;51.990;5.688;2023-04-19T10:35:26;13.8;36.6
78516;SHT31;67815;51.990;5.688;2023-04-19T10:38:08;13.9;35.9
78516;SHT31;67815;51.990;5.688;2023-04-19T10:41:00;13.9;34.2
78516;SHT31;67815;51.990;5.688;2023-04-19T10:43:32;14.0;34.8
78516;SHT31;67815;51.990;5.688;2023-04-19T10:46:06;14.0;35.0
78516;SHT31;67815;51.990;5.688;2023-04-19T10:48:38;14.1;33.7
78516;SHT31;67815;51.990;5.688;2023-04-19T10:51:15;14.1;33.0
78516;SHT31;67815;51.990;5.688;2023-04-19T10:53:51;14.1;33.9
78516;SHT31;67815;51.990;5.688;2023-04-19T10:59:19;14.2;33.1
78516;SHT31;67815;51.990;5.688;2023-04-19T11:01:53;14.3;33.4
78516;SHT31;67815;51.990;5.688;2023-04-19T11:04:58;14.4;32.7
78516;SHT31;67815;51.990;5.688;2023-04-19T11:07:39;14.4;32.2
78516;SHT31;67815;51.990;5.688;2023-04-19T11:10:10;14.4;32.6
78516;SHT31;67815;51.990;5.688;2023-04-19T11:12:44;14.5;33.0
78516;SHT31;67815;51.990;5.688;2023-04-19T11:15:13;14.5;32.0
78516;SHT31;67815;51.990;5.688;2023-04-19T11:17:43;14.6;32.4
78516;SHT31;67815;51.990;5.688;2023-04-19T11:20:13;14.6;31.8
78516;SHT31;67815;51.990;5.688;2023-04-19T11:22:45;14.7;30.4
78516;SHT31;67815;51.990;5.688;2023-04-19T11:25:16;14.7;30.0
78516;SHT31;67815;51.990;5.688;2023-04-19T11:27:48;14.7;30.8
78516;SHT31;67815;51.990;5.688;2023-04-19T11:30:21;14.8;30.5
78516;SHT31;67815;51.990;5.688;2023-04-19T11:32:53;14.8;30.2
78516;SHT31;67815;51.990;5.688;2023-04-19T11:35:24;14.9;30.0
78516;SHT31;67815;51.990;5.688;2023-04-19T11:37:57;14.9;30.8
78516;SHT31;67815;51.990;5.688;2023-04-19T11:40:30;14.9;30.5
78516;SHT31;67815;51.990;5.688;2023-04-19T11:43:02;15.0;30.0
78516;SHT31;67815;51.990;5.688;2023-04-19T11:45:34;15.0;28.8
78516;SHT31;67815;51.990;5.688;2023-04-19T11:48:05;15.1;28.8
78516;SHT31;67815;51.990;5.688;2023-04-19T11:50:37;15.1;30.2
78516;SHT31;67815;51.990;5.688;2023-04-19T11:53:12;15.2;29.4
78516;SHT31;67815;51.990;5.688;2023-04-19T11:55:45;15.3;27.2
78516;SHT31;67815;51.990;5.688;2023-04-19T11:58:36;15.4;27.1
78516;SHT31;67815;51.990;5.688;2023-04-19T12:01:08;15.4;27.7
78516;SHT31;67815;51.990;5.688;2023-04-19T12:03:44;15.4;27.4
78516;SHT31;67815;51.990;5.688;2023-04-19T12:06:16;15.5;28.0
78516;SHT31;67815;51.990;5.688;2023-04-19T12:08:48;15.5;27.9
78516;SHT31;67815;51.990;5.688;2023-04-19T12:11:22;15.5;28.6
78516;SHT31;67815;51.990;5.688;2023-04-19T12:14:08;15.6;28.8
78516;SHT31;67815;51.990;5.688;2023-04-19T12:16:40;15.6;29.1
78516;SHT31;67815;51.990;5.688;2023-04-19T12:19:12;15.7;28.0
78516;SHT31;67815;51.990;5.688;2023-04-19T12:21:44;15.8;27.4
78516;SHT31;67815;51.990;5.688;2023-04-19T12:24:16;15.8;28.1
78516;SHT31;67815;51.990;5.688;2023-04-19T12:26:55;15.9;25.5
78516;SHT31;67815;51.990;5.688;2023-04-19T12:29:26;15.9;25.6
78516;SHT31;67815;51.990;5.688;2023-04-19T12:31:56;16.0;25.9
78516;SHT31;67815;51.990;5.688;2023-04-19T12:34:26;16.0;26.2
78516;SHT31;67815;51.990;5.688;2023-04-19T12:36:56;16.0;26.2
78516;SHT31;67815;51.990;5.688;2023-04-19T12:39:26;16.1;26.0
78516;SHT31;67815;51.990;5.688;2023-04-19T12:41:57;16.1;26.2
78516;SHT31;67815;51.990;5.688;2023-04-19T12:44:27;16.1;26.6
78516;SHT31;67815;51.990;5.688;2023-04-19T12:46:57;16.2;25.8
78516;SHT31;67815;51.990;5.688;2023-04-19T12:49:26;16.2;26.2
78516;SHT31;67815;51.990;5.688;2023-04-19T12:51:56;16.2;28.5
78516;SHT31;67815;51.990;5.688;2023-04-19T12:54:26;16.2;27.0
78516;SHT31;67815;51.990;5.688;2023-04-19T12:56:57;16.2;27.8
78516;SHT31;67815;51.990;5.688;2023-04-19T12:59:28;16.3;26.6
78516;SHT31;67815;51.990;5.688;2023-04-19T13:01:57;16.3;27.5
78516;SHT31;67815;51.990;5.688;2023-04-19T13:04:27;16.3;27.5
78516;SHT31;67815;51.990;5.688;2023-04-19T13:06:57;16.3;28.2
78516;SHT31;67815;51.990;5.688;2023-04-19T13:09:28;16.4;26.7
78516;SHT31;67815;51.990;5.688;2023-04-19T13:11:57;16.4;28.6
78516;SHT31;67815;51.990;5.688;2023-04-19T13:14:28;16.4;28.0
78516;SHT31;67815;51.990;5.688;2023-04-19T13:16:58;16.5;26.8
78516;SHT31;67815;51.990;5.688;2023-04-19T13:19:27;16.5;26.3
78516;SHT31;67815;51.990;5.688;2023-04-19T13:21:57;16.5;25.2
78516;SHT31;67815;51.990;5.688;2023-04-19T13:24:27;16.5;26.8
78516;SHT31;67815;51.990;5.688;2023-04-19T13:26:57;16.6;27.7
78516;SHT31;67815;51.990;5.688;2023-04-19T13:29:26;16.6;26.5
78516;SHT31;67815;51.990;5.688;2023-04-19T13:31:57;16.6;27.4
78516;SHT31;67815;51.990;5.688;2023-04-19T13:34:27;16.6;26.4
78516;SHT31;67815;51.990;5.688;2023-04-19T13:36:57;16.6;27.7
78516;SHT31;67815;51.990;5.688;2023-04-19T13:39:29;16.7;27.0
78516;SHT31;67815;51.990;5.688;2023-04-19T13:41:59;16.7;27.8
78516;SHT31;67815;51.990;5.688;2023-04-19T13:44:30;16.7;26.1
78516;SHT31;67815;51.990;5.688;2023-04-19T13:46:59;16.8;26.4
78516;SHT31;67815;51.990;5.688;2023-04-19T13:49:29;16.9;27.0
78516;SHT31;67815;51.990;5.688;2023-04-19T13:51:59;16.9;26.7
78516;SHT31;67815;51.990;5.688;2023-04-19T13:54:28;17.0;25.3
78516;SHT31;67815;51.990;5.688;2023-04-19T13:56:58;17.0;23.9
78516;SHT31;67815;51.990;5.688;2023-04-19T13:59:29;17.0;23.2
78516;SHT31;67815;51.990;5.688;2023-04-19T14:02:01;17.1;23.7
78516;SHT31;67815;51.990;5.688;2023-04-19T14:04:31;17.1;23.2
78516;SHT31;67815;51.990;5.688;2023-04-19T14:07:01;17.1;26.6
78516;SHT31;67815;51.990;5.688;2023-04-19T14:09:33;17.1;25.4
78516;SHT31;67815;51.990;5.688;2023-04-19T14:12:03;17.1;24.9
78516;SHT31;67815;51.990;5.688;2023-04-19T14:14:35;17.1;24.9
78516;SHT31;67815;51.990;5.688;2023-04-19T14:17:04;17.2;25.1
78516;SHT31;67815;51.990;5.688;2023-04-19T14:19:34;17.2;24.4
78516;SHT31;67815;51.990;5.688;2023-04-19T14:22:04;17.2;24.3
78516;SHT31;67815;51.990;5.688;2023-04-19T14:24:34;17.2;25.1
78516;SHT31;67815;51.990;5.688;2023-04-19T14:27:03;17.2;25.9
78516;SHT31;67815;51.990;5.688;2023-04-19T14:29:33;17.3;25.7
78516;SHT31;67815;51.990;5.688;2023-04-19T14:32:02;17.3;25.9
78516;SHT31;67815;51.990;5.688;2023-04-19T14:34:32;17.3;25.4
78516;SHT31;67815;51.990;5.688;2023-04-19T14:37:02;17.3;26.3
78516;SHT31;67815;51.990;5.688;2023-04-19T14:39:32;17.4;27.6
78516;SHT31;67815;51.990;5.688;2023-04-19T14:42:02;17.4;27.5
78516;SHT31;67815;51.990;5.688;2023-04-19T14:44:32;17.4;25.6
78516;SHT31;67815;51.990;5.688;2023-04-19T14:47:02;17.4;27.3
78516;SHT31;67815;51.990;5.688;2023-04-19T14:49:32;17.4;27.0
78516;SHT31;67815;51.990;5.688;2023-04-19T14:52:04;17.5;28.3
78516;SHT31;67815;51.990;5.688;2023-04-19T14:54:34;17.5;26.4
78516;SHT31;67815;51.990;5.688;2023-04-19T14:57:03;17.5;26.8
78516;SHT31;67815;51.990;5.688;2023-04-19T14:59:33;17.5;26.4
78516;SHT31;67815;51.990;5.688;2023-04-19T15:02:03;17.5;27.0
78516;SHT31;67815;51.990;5.688;2023-04-19T15:04:34;17.6;28.5
78516;SHT31;67815;51.990;5.688;2023-04-19T15:07:04;17.6;27.6
78516;SHT31;67815;51.990;5.688;2023-04-19T15:09:33;17.6;27.3
78516;SHT31;67815;51.990;5.688;2023-04-19T15:12:03;17.6;28.6
78516;SHT31;67815;51.990;5.688;2023-04-19T15:14:33;17.7;27.2
78516;SHT31;67815;51.990;5.688;2023-04-19T15:17:04;17.7;27.1
78516;SHT31;67815;51.990;5.688;2023-04-19T15:19:34;17.7;27.8
78516;SHT31;67815;51.990;5.688;2023-04-19T15:22:04;17.7;28.3
78516;SHT31;67815;51.990;5.688;2023-04-19T15:24:35;17.7;29.1
78516;SHT31;67815;51.990;5.688;2023-04-19T15:27:05;17.7;27.9
78516;SHT31;67815;51.990;5.688;2023-04-19T15:29:35;17.7;27.6
78516;SHT31;67815;51.990;5.688;2023-04-19T15:32:06;17.7;28.2
78516;SHT31;67815;51.990;5.688;2023-04-19T15:34:36;17.7;27.3
78516;SHT31;67815;51.990;5.688;2023-04-19T15:37:05;17.8;27.6
78516;SHT31;67815;51.990;5.688;2023-04-19T15:39:35;17.8;28.4
78516;SHT31;67815;51.990;5.688;2023-04-19T15:42:04;17.8;28.1
78516;SHT31;67815;51.990;5.688;2023-04-19T15:44:34;17.8;27.7
78516;SHT31;67815;51.990;5.688;2023-04-19T15:47:04;17.8;28.4
78516;SHT31;67815;51.990;5.688;2023-04-19T15:49:34;17.9;27.5
78516;SHT31;67815;51.990;5.688;2023-04-19T15:52:04;17.8;27.3
78516;SHT31;67815;51.990;5.688;2023-04-19T15:54:33;17.8;27.7
78516;SHT31;67815;51.990;5.688;2023-04-19T15:57:04;17.8;27.5
78516;SHT31;67815;51.990;5.688;2023-04-19T15:59:33;17.7;27.4
78516;SHT31;67815;51.990;5.688;2023-04-19T16:02:03;17.7;27.6
78516;SHT31;67815;51.990;5.688;2023-04-19T16:04:32;17.6;27.7
78516;SHT31;67815;51.990;5.688;2023-04-19T16:07:03;17.6;29.4
78516;SHT31;67815;51.990;5.688;2023-04-19T16:09:32;17.6;28.4
78516;SHT31;67815;51.990;5.688;2023-04-19T16:12:02;17.5;28.6
78516;SHT31;67815;51.990;5.688;2023-04-19T16:14:35;17.5;29.0
78516;SHT31;67815;51.990;5.688;2023-04-19T16:17:05;17.5;28.8
78516;SHT31;67815;51.990;5.688;2023-04-19T16:19:38;17.5;28.9
78516;SHT31;67815;51.990;5.688;2023-04-19T16:22:07;17.5;28.4
78516;SHT31;67815;51.990;5.688;2023-04-19T16:24:37;17.4;28.5
78516;SHT31;67815;51.990;5.688;2023-04-19T16:27:07;17.4;27.9
78516;SHT31;67815;51.990;5.688;2023-04-19T16:29:37;17.3;28.5